Delta Fantasy — WDF8698 — position and weather

sailwx.info

Track history (hours):
 
Tides and Currents Weather Stations Pressure Air Temp Water Temp Dewpoint Dewpoint Depression Visibility Wind Speed Wind Dir Waves Ship Positions

Delta Fantasy

Owner: Crosby Marine Transportation LLC, Golden Meadow, LA. More information available from US FCC via Universal Licensing System and Coast Guard Vessel Documentation Center.

Last reported at 2018-Jul-18 09:20 UTC. Time now 2018-Jul-20 02:43 UTC.
Position N 40°47' W 073°60'.

Length 32 m; draft 4 m.

Type: Tug. MMSI: 367497610.

Date/timePositionNaut miles runAvg speedWind from/ knotsBaromVisibWave heightAir tempDewpointWater temp
2018-Jul-18 09:20N 40°47' W 073°60'2 7.3
2018-Jul-18 09:00N 40°45' W 074°01'2 4.9
2018-Jul-18 08:30N 40°42' W 073°59'3 0.2
2018-Jul-17 14:57N 40°46' W 073°57'4 9.8
2018-Jul-17 14:30N 40°42' W 074°00'4 8.4
2018-Jul-17 14:00N 40°39' W 074°04'3 6.8
2018-Jul-17 13:30N 40°38' W 074°09'3 0.2
2018-Jul-16 20:54N 40°37' W 074°12'4 8.8
2018-Jul-16 20:30N 40°39' W 074°08'1 0.4
2018-Jul-16 17:55N 40°39' W 074°07'0 0.1
2018-Jul-16 17:29N 40°39' W 074°07'0 0.0
2018-Jul-16 17:00N 40°39' W 074°07'2 3.8
2018-Jul-16 16:30N 40°39' W 074°09'1 0.4
2018-Jul-16 14:31N 40°39' W 074°10'0 4.2
2018-Jul-16 14:30N 40°39' W 074°10'3 1.4
2018-Jul-16 12:26N 40°36' W 074°12'3 6.8
2018-Jul-16 11:56N 40°39' W 074°09'410.0
2018-Jul-16 11:30N 40°39' W 074°03'510.7
2018-Jul-16 11:00N 40°45' W 074°01'  
2018-Jul-14 03:03N 40°52' W 073°57'410.6
2018-Jul-14 02:39N 40°48' W 073°59'110.6
2018-Jul-14 02:30N 40°47' W 073°60'510.6
2018-Jul-14 02:00N 40°41' W 074°02'4 8.2
2018-Jul-14 01:30N 40°39' W 074°06'10 0.8
2018-Jul-13 12:52N 40°32' W 074°15'0 0.0
2018-Jul-13 12:30N 40°32' W 074°15'0 0.0
2018-Jul-13 12:00N 40°32' W 074°15'0 0.1
2018-Jul-13 11:30N 40°32' W 074°15'0 0.1
2018-Jul-13 10:59N 40°32' W 074°15'1 1.7
2018-Jul-13 10:23N 40°33' W 074°15'3 8.1
2018-Jul-13 10:00N 40°35' W 074°12'1 2.1
2018-Jul-13 09:30N 40°36' W 074°12'0 0.0
2018-Jul-13 09:00N 40°36' W 074°12'0 0.0
2018-Jul-13 08:30N 40°36' W 074°12'1 2.1
2018-Jul-13 08:00N 40°37' W 074°12'4 7.8
2018-Jul-13 07:30N 40°39' W 074°07'2 4.6
2018-Jul-13 07:00N 40°39' W 074°04'5 9.6
2018-Jul-13 06:30N 40°42' W 073°60'611.1
2018-Jul-13 06:00N 40°47' W 073°55'5 9.4
2018-Jul-13 05:30N 40°48' W 073°49'4 7.9
2018-Jul-13 04:56N 40°51' W 073°45'4 7.2
2018-Jul-13 04:26N 40°52' W 073°41'12 0.7
2018-Jul-12 10:25N 40°47' W 073°55'410.4
2018-Jul-12 10:00N 40°43' W 073°58'5 9.3
2018-Jul-12 09:30N 40°40' W 074°03'3 6.4
2018-Jul-12 09:00N 40°39' W 074°06'3 6.6
2018-Jul-12 08:29N 40°39' W 074°11'10 0.5
2018-Jul-11 14:52N 40°32' W 074°02'13 1.3
2018-Jul-11 04:37N 40°37' W 073°47'1 7.8
2018-Jul-11 04:30N 40°36' W 073°48'2 4.4
2018-Jul-11 04:00N 40°35' W 073°50'4 7.3
2018-Jul-11 03:30N 40°34' W 073°55'4 7.4
2018-Jul-11 03:00N 40°34' W 073°60'5 9.0
2018-Jul-11 02:30N 40°38' W 074°03'5 9.5
2018-Jul-11 02:00N 40°42' W 074°00'4 0.2
2018-Jul-10 08:26N 40°46' W 073°57'4 9.7
2018-Jul-10 08:00N 40°42' W 073°60'4 8.7
2018-Jul-10 07:30N 40°39' W 074°04'3 6.7
2018-Jul-10 07:00N 40°39' W 074°08'8 0.4
2018-Jul-09 11:08N 40°32' W 074°15'0 0.0
2018-Jul-09 10:54N 40°32' W 074°15'4 2.6
2018-Jul-09 09:23N 40°36' W 074°12'1 2.7
2018-Jul-09 08:58N 40°37' W 074°12'1 2.7
2018-Jul-09 08:30N 40°38' W 074°12'2 3.0
2018-Jul-09 07:59N 40°39' W 074°10'2 3.6
2018-Jul-09 07:30N 40°39' W 074°08'2 4.6
2018-Jul-09 07:00N 40°39' W 074°05'3 5.5
2018-Jul-09 06:30N 40°41' W 074°02'3 5.3
2018-Jul-09 06:00N 40°42' W 073°60'2 4.7
2018-Jul-09 05:30N 40°44' W 073°58'  
Track history (hours):
 
Tides and Currents Weather Stations Pressure Air Temp Water Temp Dewpoint Dewpoint Depression Visibility Wind Speed Wind Dir Waves Ship Positions

Delta Fantasy

Owner: Crosby Marine Transportation LLC, Golden Meadow, LA. More information available from US FCC via Universal Licensing System and Coast Guard Vessel Documentation Center.

Last reported at 2018-Jul-18 09:20 UTC. Time now 2018-Jul-20 02:43 UTC.
Position N 40°47' W 073°60'.

Length 32 m; draft 4 m.

Type: Tug. MMSI: 367497610.

Date/timePositionNaut miles runAvg speedWind from/ knotsBaromVisibWave heightAir tempDewpointWater temp
2018-Jul-18 09:20N 40°47' W 073°60'2 7.3
2018-Jul-18 09:00N 40°45' W 074°01'2 4.9
2018-Jul-18 08:30N 40°42' W 073°59'3 0.2
2018-Jul-17 14:57N 40°46' W 073°57'4 9.8
2018-Jul-17 14:30N 40°42' W 074°00'4 8.4
2018-Jul-17 14:00N 40°39' W 074°04'3 6.8
2018-Jul-17 13:30N 40°38' W 074°09'3 0.2
2018-Jul-16 20:54N 40°37' W 074°12'4 8.8
2018-Jul-16 20:30N 40°39' W 074°08'1 0.4
2018-Jul-16 17:55N 40°39' W 074°07'0 0.1
2018-Jul-16 17:29N 40°39' W 074°07'0 0.0
2018-Jul-16 17:00N 40°39' W 074°07'2 3.8
2018-Jul-16 16:30N 40°39' W 074°09'1 0.4
2018-Jul-16 14:31N 40°39' W 074°10'0 4.2
2018-Jul-16 14:30N 40°39' W 074°10'3 1.4
2018-Jul-16 12:26N 40°36' W 074°12'3 6.8
2018-Jul-16 11:56N 40°39' W 074°09'410.0
2018-Jul-16 11:30N 40°39' W 074°03'510.7
2018-Jul-16 11:00N 40°45' W 074°01'  
2018-Jul-14 03:03N 40°52' W 073°57'410.6
2018-Jul-14 02:39N 40°48' W 073°59'110.6
2018-Jul-14 02:30N 40°47' W 073°60'510.6
2018-Jul-14 02:00N 40°41' W 074°02'4 8.2
2018-Jul-14 01:30N 40°39' W 074°06'10 0.8
2018-Jul-13 12:52N 40°32' W 074°15'0 0.0
2018-Jul-13 12:30N 40°32' W 074°15'0 0.0
2018-Jul-13 12:00N 40°32' W 074°15'0 0.1
2018-Jul-13 11:30N 40°32' W 074°15'0 0.1
2018-Jul-13 10:59N 40°32' W 074°15'1 1.7
2018-Jul-13 10:23N 40°33' W 074°15'3 8.1
2018-Jul-13 10:00N 40°35' W 074°12'1 2.1
2018-Jul-13 09:30N 40°36' W 074°12'0 0.0
2018-Jul-13 09:00N 40°36' W 074°12'0 0.0
2018-Jul-13 08:30N 40°36' W 074°12'1 2.1
2018-Jul-13 08:00N 40°37' W 074°12'4 7.8
2018-Jul-13 07:30N 40°39' W 074°07'2 4.6
2018-Jul-13 07:00N 40°39' W 074°04'5 9.6
2018-Jul-13 06:30N 40°42' W 073°60'611.1
2018-Jul-13 06:00N 40°47' W 073°55'5 9.4
2018-Jul-13 05:30N 40°48' W 073°49'4 7.9
2018-Jul-13 04:56N 40°51' W 073°45'4 7.2
2018-Jul-13 04:26N 40°52' W 073°41'12 0.7
2018-Jul-12 10:25N 40°47' W 073°55'410.4
2018-Jul-12 10:00N 40°43' W 073°58'5 9.3
2018-Jul-12 09:30N 40°40' W 074°03'3 6.4
2018-Jul-12 09:00N 40°39' W 074°06'3 6.6
2018-Jul-12 08:29N 40°39' W 074°11'10 0.5
2018-Jul-11 14:52N 40°32' W 074°02'13 1.3
2018-Jul-11 04:37N 40°37' W 073°47'1 7.8
2018-Jul-11 04:30N 40°36' W 073°48'2 4.4
2018-Jul-11 04:00N 40°35' W 073°50'4 7.3
2018-Jul-11 03:30N 40°34' W 073°55'4 7.4
2018-Jul-11 03:00N 40°34' W 073°60'5 9.0
2018-Jul-11 02:30N 40°38' W 074°03'5 9.5
2018-Jul-11 02:00N 40°42' W 074°00'4 0.2
2018-Jul-10 08:26N 40°46' W 073°57'4 9.7
2018-Jul-10 08:00N 40°42' W 073°60'4 8.7
2018-Jul-10 07:30N 40°39' W 074°04'3 6.7
2018-Jul-10 07:00N 40°39' W 074°08'8 0.4
2018-Jul-09 11:08N 40°32' W 074°15'0 0.0
2018-Jul-09 10:54N 40°32' W 074°15'4 2.6
2018-Jul-09 09:23N 40°36' W 074°12'1 2.7
2018-Jul-09 08:58N 40°37' W 074°12'1 2.7
2018-Jul-09 08:30N 40°38' W 074°12'2 3.0
2018-Jul-09 07:59N 40°39' W 074°10'2 3.6
2018-Jul-09 07:30N 40°39' W 074°08'2 4.6
2018-Jul-09 07:00N 40°39' W 074°05'3 5.5
2018-Jul-09 06:30N 40°41' W 074°02'3 5.3
2018-Jul-09 06:00N 40°42' W 073°60'2 4.7
2018-Jul-09 05:30N 40°44' W 073°58'  

Dump ship's entire track history